Pickle Lake Airport

CYPL / YPL

Pickle Lake, CA

Airport Type
medium airport

Climate Statistics

Average Temperature
-2.4°C
Last 48 hours
Average Wind Speed
8.1 kt
Last 48 hours
Average Visibility
6.3 km
Last 48 hours
Average Pressure
2972.6 hPa
Last 48 hours

Note: Averages calculated from last 48 hours of METAR observations (50 records).

Historical METAR Observations

Time Code Weather Temp Visibility Ceiling Wind METAR/SPECI
11:20 M ☁️ -4°C - 2,400 ft 320° 6 kt SPECI CYPL 061120Z AUTO 32006KT 1 1/4SM -SN OVC024 M04/M06 A2978 RMK SLP112
11:11 I ☁️ -4°C 2 SM 2,800 ft 310° 6 kt SPECI CYPL 061111Z AUTO 31006KT 280V360 2SM -SN OVC028 M04/M06 A2978 RMK SLP112
11:01 V ☁️ -4°C - 3,000 ft 310° 7 kt SPECI CYPL 061101Z AUTO 31007G15KT 280V340 2 1/4SM -SN FEW010 OVC030 M04/M06 A2978 RMK SLP111
10:51 I ☁️ -4°C 2 SM 3,000 ft 310° 4 kt SPECI CYPL 061051Z AUTO 31004KT 260V350 2SM -SN FEW016 BKN030 OVC035 M04/M05 A2978 RMK VIS VRB 1 1/2-3 SLP110
10:38 V ☁️ -4°C - 3,000 ft 310° 6 kt SPECI CYPL 061038Z AUTO 31006KT 260V340 2 1/2SM -SN SCT016 OVC030 M04/M06 A2978 RMK SLP110
10:36 V ☁️ -4°C - 3,000 ft 310° 6 kt SPECI CYPL 061036Z AUTO 31006KT 260V340 2 1/2SM -SN SCT016 OVC030 M04/M06 A2977 RMK SLP109
10:27 M ☁️ -4°C 5 SM 1,600 ft 310° 7 kt SPECI CYPL 061027Z AUTO 31007KT 270V350 5SM -SN BKN016 OVC032 M04/M06 A2977 RMK SLP108
10:08 M ☁️ -4°C 7 SM 2,200 ft 310° 6 kt SPECI CYPL 061008Z AUTO 31006KT 280V360 7SM -SN SCT016 BKN022 OVC032 M04/M06 A2977 RMK SLP108
10:06 V ☁️ -4°C 7 SM 3,200 ft 320° 8 kt SPECI CYPL 061006Z AUTO 32008KT 290V360 7SM -SN SCT016 OVC032 M04/M06 A2977 RMK SLP108
09:49 M ☁️ -4°C 9 SM 1,600 ft 320° 6 kt SPECI CYPL 060949Z AUTO 32006KT 290V350 9SM -SN BKN016 OVC032 M04/M06 A2977 RMK SLP108
09:28 V ☁️ -4°C 9 SM 3,400 ft 330° 5 kt SPECI CYPL 060928Z AUTO 33005G15KT 270V050 9SM -SN SCT014 OVC034 M04/M06 A2977 RMK SLP106
09:21 M ☁️ -4°C 6 SM 1,400 ft 340° 7 kt SPECI CYPL 060921Z AUTO 34007G16KT 270V010 6SM -SN BKN014 BKN019 BKN029 OVC034 M04/M06 A2977 RMK SLP106
09:09 M ☁️ -4°C 5 SM 1,400 ft 310° 8 kt SPECI CYPL 060909Z AUTO 31008G15KT 5SM -SN BKN014 OVC019 M04/M06 A2977 RMK SLP106
09:00 M ☁️ -4°C 9 SM 1,400 ft 320° 8 kt METAR CYPL 060900Z AUTO 32008KT 280V340 9SM -SN BKN014 BKN019 BKN024 OVC039 M04/M06 A2977 RMK SLP104
08:00 M ☁️ -3°C 9 SM 2,100 ft 310° 6 kt METAR CYPL 060800Z AUTO 31006KT 280V350 9SM -SN SCT017 BKN021 OVC046 M03/M05 A2976 RMK SLP101
07:57 M ☁️ -4°C 9 SM 1,900 ft 310° 6 kt SPECI CYPL 060757Z AUTO 31006KT 280V360 9SM -SN BKN019 OVC046 M04/M05 A2976 RMK SLP103
07:44 V ☁️ -3°C 7 SM 4,600 ft 320° 6 kt SPECI CYPL 060744Z AUTO 32006G15KT 290V030 7SM -SN SCT015 OVC046 M03/M06 A2975 RMK SLP102
07:12 M ☁️ -3°C 9 SM 2,000 ft 310° 5 kt SPECI CYPL 060712Z AUTO 31005KT 280V350 9SM -SN SCT015 BKN020 OVC050 M03/M05 A2976 RMK SLP103
07:00 V ☁️ -3°C 9 SM 5,000 ft 320° 6 kt METAR CYPL 060700Z AUTO 32006KT 270V010 9SM -SN FEW017 BKN050 OVC060 M03/M05 A2976 RMK SLP101
06:37 V ☁️ -3°C 6 SM 4,500 ft 330° 9 kt SPECI CYPL 060637Z AUTO 33009G16KT 270V020 6SM -SN SCT015 BKN045 OVC060 M03/M05 A2975 RMK SLP102
06:34 V ☁️ -3°C 6 SM 4,800 ft 330° 8 kt SPECI CYPL 060634Z AUTO 33008G19KT 290V020 6SM -SN SCT015 SCT021 BKN048 OVC066 M03/M05 A2975 RMK SLP102
06:00 M ☁️ -3°C 4 SM 1,500 ft 320° 8 kt METAR CYPL 060600Z AUTO 32008KT 280V360 4SM -SN BKN015 OVC021 M03/M05 A2976 RMK SLP101
05:56 M ☁️ -3°C 5 SM 1,800 ft 310° 7 kt SPECI CYPL 060556Z AUTO 31007G17KT 280V360 5SM -SN OVC018 M03/M05 A2975 RMK SLP102
05:17 M ☁️ -3°C 6 SM 1,800 ft 310° 9 kt SPECI CYPL 060517Z AUTO 31009G15KT 280V340 6SM -SN BKN018 OVC023 M03/M05 A2975 RMK SLP100
05:10 M ☁️ -3°C 3 SM 2,000 ft 310° 7 kt SPECI CYPL 060510Z AUTO 31007G16KT 270V340 3SM -SN OVC020 M03/M05 A2975 RMK SLP101
05:05 M ☁️ -3°C - 2,000 ft 310° 9 kt SPECI CYPL 060505Z AUTO 31009G15KT 280V340 2 1/4SM -SN OVC020 M03/M05 A2975 RMK VIS VRB 1 3/4-3 SLP101
05:02 I ☁️ -3°C 2 SM 1,700 ft 310° 8 kt SPECI CYPL 060502Z AUTO 31008G16KT 270V340 2SM -SN BKN017 OVC024 M03/M05 A2975 RMK SLP101
04:53 M ☁️ -3°C 5 SM 1,700 ft 300° 8 kt SPECI CYPL 060453Z AUTO 30008G15KT 250V350 5SM -SN BKN017 OVC024 M03/M05 A2975 RMK SLP100
04:11 M ☁️ -3°C 6 SM 1,700 ft 300° 7 kt SPECI CYPL 060411Z AUTO 30007KT 260V350 6SM -SN BKN017 OVC022 M03/M05 A2974 RMK SLP098
04:00 M ☁️ -3°C 3 SM 2,100 ft 300° 7 kt METAR CYPL 060400Z AUTO 30007G16KT 260V340 3SM -SN OVC021 M03/M05 A2974 RMK SLP098
03:03 M ☁️ -3°C 5 SM 2,400 ft 310° 9 kt SPECI CYPL 060303Z AUTO 31009G21KT 250V350 5SM -SN FEW018 BKN024 OVC030 M03/M05 A2973 RMK SLP094
02:31 M ☁️ -2°C 9 SM 2,300 ft 310° 9 kt SPECI CYPL 060231Z AUTO 31009G20KT 270V350 9SM -SN SCT018 BKN023 OVC034 M02/M05 A2972 RMK SLP090
02:00 V ☁️ -2°C 9 SM 4,000 ft 320° 9 kt METAR CYPL 060200Z AUTO 32009G19KT 280V010 9SM -SN FEW033 OVC040 M02/M05 A2972 RMK SLP090
01:21 V ☁️ -2°C 9 SM 4,400 ft 310° 7 kt SPECI CYPL 060121Z AUTO 31007G20KT 250V030 9SM -SN FEW019 SCT024 SCT037 OVC044 M02/M05 A2971 RMK SLP085
01:15 V ☁️ -2°C 7 SM 3,900 ft 320° 10 kt SPECI CYPL 060115Z AUTO 32010G22KT 280V030 7SM -SN SCT021 SCT026 OVC039 M02/M05 A2971 RMK SLP084
01:00 M ☁️ -1°C 5 SM 2,400 ft 320° 12 kt METAR CYPL 060100Z AUTO 32012G19KT 280V010 5SM -SN SCT019 BKN024 OVC038 M01/M05 A2971 RMK SLP084
00:59 M ☁️ -1°C 5 SM 2,400 ft 320° 12 kt SPECI CYPL 060059Z AUTO 32012G19KT 280V010 5SM -SN SCT019 BKN024 OVC038 M01/M05 A2971 RMK SLP083
00:10 V ☁️ -1°C 6 SM 3,300 ft 310° 10 kt SPECI CYPL 060010Z AUTO 31010G17KT 260V340 6SM -SN FEW019 SCT025 BKN033 OVC041 M01/M04 A2969 RMK SLP076
00:00 M ☁️ -1°C 4 SM 3,300 ft 310° 9 kt METAR CYPL 060000Z AUTO 31009G21KT 270V340 4SM -SN FEW019 SCT025 BKN033 OVC041 M01/M04 A2968 RMK SLP076
23:37 M ☁️ -1°C 5 SM 3,600 ft 300° 9 kt SPECI CYPL 052337Z AUTO 30009G19KT 240V360 5SM -SN FEW019 SCT025 BKN036 OVC044 M01/M03 A2967 RMK SLP071
23:22 V ☁️ 0°C 6 SM 3,400 ft 320° 10 kt SPECI CYPL 052322Z AUTO 32010G19KT 240V350 6SM -SN FEW027 BKN034 OVC043 M00/M04 A2967 RMK SLP070
23:00 M ☁️ 0°C 3 SM 3,400 ft 310° 11 kt METAR CYPL 052300Z AUTO 31011G25KT 260V330 3SM -SN BKN034 OVC041 M00/M04 A2967 RMK SLP070
22:53 M ☁️ 0°C 5 SM 3,400 ft 300° 8 kt SPECI CYPL 052253Z AUTO 30008G19KT 270V350 5SM -SN BKN034 OVC041 M00/M04 A2966 RMK SLP066
22:46 V ☁️ 0°C 6 SM 3,400 ft 310° 9 kt SPECI CYPL 052246Z AUTO 31009G20KT 270V360 6SM -SN FEW029 BKN034 OVC042 M00/M04 A2966 RMK SLP066
22:22 M ☁️ 0°C 5 SM 3,300 ft 310° 11 kt SPECI CYPL 052222Z AUTO 31011G19KT 260V350 5SM -SN BKN033 OVC042 M00/M05 A2965 RMK SLP063
22:00 M ☁️ 0°C 9 SM 2,700 ft 310° 11 kt METAR CYPL 052200Z AUTO 31011G23KT 260V350 9SM -SN BKN027 OVC035 00/M05 A2964 RMK SLP063
21:05 M ☁️ 0°C 9 SM 2,800 ft 310° 10 kt SPECI CYPL 052105Z AUTO 31010G22KT 240V360 9SM -SN BKN028 OVC038 M00/M05 A2963 RMK SLP055
20:56 M ☁️ 0°C 9 SM 2,800 ft 310° 13 kt SPECI CYPL 052056Z AUTO 31013G25KT 270V340 9SM -SN -UP BKN028 OVC040 M00/M05 A2962 RMK SLP053
20:00 V ☁️ 0°C 9 SM 3,200 ft 310° 10 kt METAR CYPL 052000Z AUTO 31010G22KT 250V350 9SM -SN SCT026 OVC032 M00/M05 A2960 RMK SLP050
19:59 V ☁️ 0°C 9 SM 3,200 ft 310° 11 kt SPECI CYPL 051959Z AUTO 31011G22KT 250V350 9SM -SN SCT026 OVC032 M00/M05 A2960 RMK SLP047